Time;durP1;ratioP1;P1;durP2;ratioP2;P2;SDS_P1;SDS_P2;PMS_P1;PMS_P2;Temp;Humidity;BMP_temperature;BMP_pressure;BME280_temperature;BME280_humidity;BME280_pressure;Samples;Min_cycle;Max_cycle;Signal;HPM_P1;HPM_P2
2024/02/01 00:02:04;;;;;;;6.20;3.85;;;11.60;83.80;;;;;;5000119;28;20050;-81
2024/02/01 00:04:38;;;;;;;6.55;3.75;;;11.70;83.90;;;;;;4983718;28;20007;-81
2024/02/01 00:07:25;;;;;;;6.38;3.90;;;11.70;83.90;;;;;;4999697;28;20038;-80
2024/02/01 00:09:54;;;;;;;6.20;3.83;;;11.60;83.80;;;;;;4983299;28;20041;-82
2024/02/01 00:12:32;;;;;;;5.80;3.63;;;11.70;83.90;;;;;;4967204;28;20030;-83
2024/02/01 00:14:59;;;;;;;6.22;3.63;;;11.50;83.80;;;;;;4982440;28;20106;-83
2024/02/01 00:17:30;;;;;;;5.72;3.72;;;11.60;83.90;;;;;;4982897;28;20010;-82
2024/02/01 00:35:34;;;;;;;6.07;3.80;;;11.60;84.00;;;;;;5496777;23;20066;-81
2024/02/01 00:40:40;;;;;;;5.22;3.35;;;11.60;84.00;;;;;;5683222;23;20934;-81
2024/02/01 00:43:10;;;;;;;6.55;3.70;;;12.20;84.40;;;;;;4978822;28;20062;-82
2024/02/01 00:45:39;;;;;;;5.57;3.55;;;11.60;84.00;;;;;;4980247;28;20012;-81
2024/02/01 00:55:52;;;;;;;6.30;3.90;;;11.60;84.00;;;;;;5937859;23;20047;-82
2024/02/01 00:58:18;;;;;;;5.93;3.60;;;11.70;84.10;;;;;;4978075;28;20058;-82
2024/02/01 01:00:46;;;;;;;6.35;3.97;;;11.50;84.10;;;;;;4979309;28;20023;-81
2024/02/01 01:03:12;;;;;;;5.90;3.60;;;11.70;84.70;;;;;;5055137;23;20686;-81
2024/02/01 01:05:39;;;;;;;5.95;3.63;;;11.60;84.10;;;;;;4960009;28;20004;-81
2024/02/01 01:08:09;;;;;;;5.85;3.75;;;11.70;84.20;;;;;;4943697;28;20024;-82
2024/02/01 01:10:41;;;;;;;6.28;3.60;;;11.50;84.10;;;;;;4960262;28;20016;-81
2024/02/01 01:13:27;;;;;;;5.57;3.75;;;11.50;84.10;;;;;;4960287;28;20016;-81
2024/02/01 01:15:59;;;;;;;5.97;3.75;;;12.50;84.60;;;;;;4959584;28;20087;-83
2024/02/01 01:26:25;;;;;;;6.00;3.63;;;11.60;84.20;;;;;;5440377;23;20070;-80
2024/02/01 01:28:55;;;;;;;5.50;3.53;;;11.60;84.20;;;;;;4980842;28;20027;-82
2024/02/01 01:31:33;;;;;;;5.97;3.45;;;11.60;84.20;;;;;;4968590;28;20035;-82
2024/02/01 01:34:04;;;;;;;6.00;3.47;;;11.60;84.20;;;;;;4966749;28;20031;-81
2024/02/01 01:36:50;;;;;;;6.80;3.70;;;11.50;84.20;;;;;;4966862;28;20046;-81
2024/02/01 01:39:18;;;;;;;5.35;3.55;;;11.70;84.20;;;;;;4963258;28;20035;-84
2024/02/01 01:41:58;;;;;;;5.60;3.75;;;10.50;83.60;;;;;;4966613;28;20019;-82
2024/02/01 01:44:25;;;;;;;5.78;3.80;;;11.60;84.20;;;;;;4981830;28;20070;-82
2024/02/01 01:46:55;;;;;;;5.22;3.25;;;11.70;84.80;;;;;;4976297;28;20043;-81
2024/02/01 01:49:23;;;;;;;5.70;3.75;;;11.70;84.30;;;;;;4965998;28;20023;-82
2024/02/01 01:51:53;;;;;;;5.75;3.80;;;11.70;84.30;;;;;;4982491;28;20020;-80
2024/02/01 01:54:31;;;;;;;5.75;3.40;;;11.70;84.30;;;;;;4982972;28;20023;-81
2024/02/01 01:57:03;;;;;;;6.25;3.80;;;11.60;84.20;;;;;;4950493;28;20007;-81
2024/02/01 01:59:42;;;;;;;5.65;3.50;;;11.70;84.30;;;;;;4950808;28;20031;-80
2024/02/01 02:02:13;;;;;;;5.60;3.45;;;11.60;84.30;;;;;;4950168;28;20031;-82
2024/02/01 02:04:41;;;;;;;5.50;3.30;;;11.60;84.30;;;;;;4966163;28;20015;-81
2024/02/01 02:07:10;;;;;;;6.80;3.75;;;11.60;84.30;;;;;;4966205;28;20031;-83
2024/02/01 02:09:36;;;;;;;5.78;3.60;;;11.60;84.30;;;;;;4966108;28;20026;-82
2024/02/01 02:12:04;;;;;;;5.75;3.33;;;11.60;84.40;;;;;;4965844;28;20019;-82
2024/02/01 02:14:43;;;;;;;5.82;3.55;;;11.70;84.40;;;;;;4965670;28;20043;-82
2024/02/01 02:17:12;;;;;;;6.55;3.70;;;11.60;84.30;;;;;;4981437;28;20047;-82
2024/02/01 02:19:51;;;;;;;5.57;3.70;;;11.60;84.30;;;;;;4981679;28;20064;-81
2024/02/01 02:22:20;;;;;;;6.18;3.85;;;11.70;84.30;;;;;;4964573;28;20023;-81
2024/02/01 02:25:00;;;;;;;5.07;3.25;;;11.90;84.50;;;;;;4950343;28;20023;-80
2024/02/01 02:27:27;;;;;;;5.60;3.63;;;11.70;84.40;;;;;;4951534;28;20043;-82
2024/02/01 02:30:00;;;;;;;5.50;3.72;;;11.70;84.40;;;;;;4980972;28;20022;-82
2024/02/01 02:32:27;;;;;;;5.38;3.30;;;11.60;84.40;;;;;;4934970;28;20023;-82
2024/02/01 02:34:55;;;;;;;5.60;3.47;;;11.60;84.40;;;;;;4965595;28;20026;-82
2024/02/01 02:37:27;;;;;;;6.22;3.97;;;12.10;84.60;;;;;;4965675;28;20015;-81
2024/02/01 02:39:54;;;;;;;5.30;3.60;;;11.50;84.30;;;;;;4976968;28;20043;-82
2024/02/01 02:42:25;;;;;;;5.47;3.45;;;11.60;84.40;;;;;;4979810;28;20096;-82
2024/02/01 02:47:42;;;;;;;5.97;3.47;;;11.60;84.40;;;;;;5408126;23;20055;-81
2024/02/01 02:50:12;;;;;;;4.97;3.40;;;11.50;84.40;;;;;;4981717;28;20034;-83
2024/02/01 02:52:50;;;;;;;6.00;3.55;;;11.70;84.50;;;;;;4981336;28;20068;-82
2024/02/01 02:55:19;;;;;;;5.70;3.60;;;11.50;84.40;;;;;;4981167;28;20026;-81
2024/02/01 02:57:45;;;;;;;5.53;3.33;;;11.60;84.40;;;;;;4949310;28;20008;-80
2024/02/01 03:00:18;;;;;;;5.30;3.25;;;11.60;84.40;;;;;;4979683;28;20100;-81
2024/02/01 03:02:50;;;;;;;6.10;3.60;;;11.70;84.50;;;;;;4965058;28;20019;-81
2024/02/01 03:05:22;;;;;;;4.82;3.28;;;11.50;84.40;;;;;;4965161;28;20011;-82
2024/02/01 03:07:53;;;;;;;5.20;3.28;;;11.50;84.40;;;;;;4964400;28;20049;-81
2024/02/01 03:10:21;;;;;;;5.60;3.70;;;11.60;84.40;;;;;;4964955;28;20018;-82
2024/02/01 03:12:51;;;;;;;4.88;3.10;;;11.60;84.40;;;;;;4949445;28;20035;-81
2024/02/01 03:15:20;;;;;;;5.28;3.53;;;11.50;84.40;;;;;;4948953;28;20083;-82
2024/02/01 03:17:53;;;;;;;5.40;3.30;;;11.60;84.50;;;;;;4964177;28;20011;-82
2024/02/01 03:20:44;;;;;;;5.25;3.53;;;11.60;85.00;;;;;;4964675;28;20031;-82
2024/02/01 03:23:11;;;;;;;5.38;3.20;;;11.60;84.50;;;;;;4964459;28;20029;-81
2024/02/01 03:25:51;;;;;;;5.32;3.53;;;11.50;84.50;;;;;;4980845;28;20023;-81
2024/02/01 03:35:42;;;;;;;5.32;3.40;;;11.60;84.50;;;;;;4961388;28;20030;-82
2024/02/01 03:38:49;;;;;;;5.75;3.67;;;11.60;84.50;;;;;;4922503;29;20113;-81
2024/02/01 03:41:40;;;;;;;5.22;3.20;;;11.70;84.60;;;;;;4935879;28;20023;-82
2024/02/01 03:44:48;;;;;;;4.95;3.03;;;11.80;84.60;;;;;;4888203;29;20061;-82
2024/02/01 04:00:28;;;;;;;5.30;3.50;;;11.60;84.50;;;;;;5260973;23;20715;-81
2024/02/01 04:03:16;;;;;;;5.15;3.05;;;11.50;84.50;;;;;;4964091;28;20043;-81
2024/02/01 04:05:45;;;;;;;4.85;3.22;;;11.50;84.50;;;;;;4964727;28;20023;-83
2024/02/01 04:08:19;;;;;;;5.43;3.20;;;11.50;84.50;;;;;;4979524;28;20031;-82
2024/02/01 04:18:33;;;;;;;4.30;2.85;;;11.60;84.60;;;;;;5358404;23;20066;-83
2024/02/01 04:24:08;;;;;;;4.55;3.00;;;11.70;84.60;;;;;;4977476;28;20042;-80
2024/02/01 04:26:42;;;;;;;5.15;3.10;;;11.50;84.50;;;;;;4948280;28;20063;-82
2024/02/01 19:21:13;;;;;;;3.70;1.30;;;12.10;83.80;;;;;;4959853;29;20050;-81
2024/02/01 19:23:42;;;;;;;4.53;1.27;;;12.10;83.80;;;;;;4971538;28;20059;-81
2024/02/01 19:26:08;;;;;;;5.80;1.30;;;12.00;83.80;;;;;;4964747;28;20011;-80
2024/02/01 19:28:53;;;;;;;5.00;1.25;;;11.90;84.20;;;;;;4980995;28;20079;-80
2024/02/01 19:34:04;;;;;;;4.28;1.35;;;12.10;83.80;;;;;;5228796;23;20069;-81
2024/02/01 19:37:00;;;;;;;4.88;1.40;;;12.00;83.80;;;;;;4977749;28;20015;-80
2024/02/01 19:39:58;;;;;;;5.25;1.48;;;12.00;83.70;;;;;;4979845;28;20043;-81
2024/02/01 19:42:25;;;;;;;7.03;1.60;;;12.10;83.80;;;;;;4964313;28;20032;-80
2024/02/01 19:45:13;;;;;;;6.22;1.77;;;12.10;83.80;;;;;;4980186;28;20034;-81
2024/02/01 19:51:21;;;;;;;6.22;1.70;;;12.00;83.70;;;;;;4979090;28;20043;-80
2024/02/01 20:28:43;;;;;;;5.22;1.55;;;12.00;83.80;;;;;;5775327;23;20038;-79
2024/02/01 20:31:13;;;;;;;5.10;1.73;;;12.00;83.90;;;;;;4978249;28;20019;-81
2024/02/01 20:33:40;;;;;;;4.97;1.33;;;12.10;83.90;;;;;;4978427;28;20047;-79
2024/02/01 20:36:33;;;;;;;5.85;1.63;;;12.00;83.90;;;;;;4961738;28;20035;-82
2024/02/01 20:39:01;;;;;;;6.22;1.75;;;12.10;83.90;;;;;;4981990;28;20015;-79
2024/02/01 20:41:32;;;;;;;6.25;1.75;;;12.00;83.90;;;;;;4981882;28;20011;-81
2024/02/01 21:07:19;;;;;;;4.68;1.67;;;12.00;83.90;;;;;;5137351;23;20064;-79
2024/02/01 21:09:51;;;;;;;5.75;1.65;;;11.90;83.90;;;;;;4959329;29;20008;-78
2024/02/01 21:12:20;;;;;;;3.78;1.45;;;12.00;83.90;;;;;;4957323;29;20020;-80
2024/02/01 21:14:52;;;;;;;4.68;1.60;;;12.00;83.90;;;;;;4939442;29;20058;-79
2024/02/01 21:17:23;;;;;;;3.38;1.30;;;12.10;84.00;;;;;;4939430;29;20059;-80
2024/02/01 21:19:50;;;;;;;5.63;1.80;;;12.10;84.00;;;;;;4923730;29;20022;-79
2024/02/01 21:22:17;;;;;;;5.10;1.55;;;12.00;84.00;;;;;;4923424;29;20034;-79
2024/02/01 21:24:44;;;;;;;4.60;1.45;;;12.00;84.00;;;;;;4940180;29;20020;-79
2024/02/01 21:27:13;;;;;;;5.40;1.85;;;11.80;83.90;;;;;;4923897;29;20084;-80
2024/02/01 21:29:42;;;;;;;5.97;1.40;;;12.00;84.00;;;;;;4940664;29;20019;-80
2024/02/01 21:32:11;;;;;;;5.18;1.65;;;12.00;84.00;;;;;;4940227;29;20091;-79
2024/02/01 21:34:52;;;;;;;3.90;1.30;;;11.90;83.90;;;;;;4923653;29;20028;-79
2024/02/01 21:37:34;;;;;;;5.30;1.77;;;12.10;84.00;;;;;;4939349;28;20029;-79
2024/02/01 21:40:02;;;;;;;5.18;1.75;;;11.90;83.90;;;;;;4923560;29;20013;-79
2024/02/01 21:42:28;;;;;;;4.57;1.50;;;12.00;84.00;;;;;;4938417;29;20020;-79
2024/02/01 21:44:57;;;;;;;6.32;1.88;;;12.00;84.00;;;;;;4942235;29;20042;-79
2024/02/01 21:47:23;;;;;;;6.38;1.85;;;12.20;84.00;;;;;;4943294;29;20076;-79
2024/02/01 21:49:49;;;;;;;4.78;1.58;;;12.00;84.00;;;;;;4926642;29;20009;-79
2024/02/01 21:52:18;;;;;;;6.30;1.80;;;12.00;84.00;;;;;;4942894;28;20031;-79
2024/02/01 21:54:45;;;;;;;3.95;1.50;;;12.00;84.00;;;;;;4927011;29;20008;-79
2024/02/01 21:57:11;;;;;;;5.88;1.77;;;11.90;83.90;;;;;;4926743;29;20091;-79
2024/02/01 21:59:36;;;;;;;5.40;1.60;;;12.10;84.00;;;;;;4942528;29;20016;-78
2024/02/01 22:02:02;;;;;;;5.28;1.92;;;12.00;84.00;;;;;;4942696;29;20068;-79
2024/02/01 22:04:29;;;;;;;4.43;1.60;;;11.90;83.90;;;;;;4942013;29;20052;-79
2024/02/01 22:06:54;;;;;;;4.78;1.63;;;12.00;84.00;;;;;;4941994;29;20028;-79
2024/02/01 22:09:20;;;;;;;4.55;1.48;;;12.00;84.00;;;;;;4925807;29;20020;-79
2024/02/01 22:11:45;;;;;;;4.75;1.52;;;12.00;84.00;;;;;;4941710;29;20013;-79
2024/02/01 22:14:11;;;;;;;5.03;1.65;;;12.00;84.00;;;;;;4925685;29;20134;-79
2024/02/01 22:16:36;;;;;;;4.78;1.75;;;12.50;84.30;;;;;;4942305;29;20016;-79
2024/02/01 22:19:03;;;;;;;6.53;1.77;;;11.90;83.90;;;;;;4925652;29;20092;-79
2024/02/01 22:21:29;;;;;;;5.07;1.50;;;12.00;84.00;;;;;;4925763;29;20021;-79
2024/02/01 22:23:55;;;;;;;5.28;1.70;;;12.00;84.00;;;;;;4925103;29;20028;-79
2024/02/01 22:26:21;;;;;;;4.70;1.73;;;13.50;84.80;;;;;;4941575;28;20017;-79
2024/02/01 22:28:46;;;;;;;4.68;1.35;;;12.00;83.90;;;;;;4925640;29;20016;-79
2024/02/01 22:31:12;;;;;;;4.50;1.70;;;12.00;83.90;;;;;;4925650;29;20047;-79
2024/02/01 22:33:38;;;;;;;4.25;1.48;;;11.90;83.90;;;;;;4925715;29;20016;-79
2024/02/01 22:36:04;;;;;;;4.28;1.60;;;11.90;83.90;;;;;;4941021;29;20022;-80
2024/02/01 22:38:30;;;;;;;4.82;1.90;;;12.00;84.00;;;;;;4942392;29;20016;-78
2024/02/01 22:40:55;;;;;;;5.40;1.60;;;12.20;84.10;;;;;;4942010;29;20105;-80
2024/02/01 22:43:21;;;;;;;5.15;1.70;;;12.00;84.00;;;;;;4925255;29;20055;-79
2024/02/01 22:45:48;;;;;;;4.63;1.88;;;12.00;84.00;;;;;;4925043;29;20020;-79
2024/02/01 22:48:13;;;;;;;5.43;1.85;;;12.10;84.10;;;;;;4925734;29;20016;-79
2024/02/01 22:50:39;;;;;;;5.88;1.92;;;12.00;84.00;;;;;;4925831;29;20081;-79
2024/02/01 22:53:04;;;;;;;5.13;1.50;;;12.00;84.00;;;;;;4941439;29;20016;-79
2024/02/01 22:55:30;;;;;;;4.93;1.50;;;11.90;84.00;;;;;;4924085;29;20043;-79
2024/02/01 22:57:56;;;;;;;5.05;1.88;;;12.00;84.00;;;;;;4941160;29;20021;-78
2024/02/01 23:00:26;;;;;;;4.85;1.65;;;12.00;84.00;;;;;;4925166;29;20104;-79
2024/02/01 23:02:53;;;;;;;4.97;1.80;;;12.00;84.00;;;;;;4941409;29;20129;-78
2024/02/01 23:05:19;;;;;;;4.07;1.80;;;11.90;84.10;;;;;;4924765;29;20052;-79
2024/02/01 23:07:46;;;;;;;5.03;1.67;;;12.00;84.50;;;;;;4941377;29;20024;-78
2024/02/01 23:10:12;;;;;;;4.90;1.70;;;12.00;84.00;;;;;;4924962;29;20009;-80
2024/02/01 23:12:38;;;;;;;6.55;1.98;;;11.80;83.90;;;;;;4924563;29;20016;-79
2024/02/01 23:15:06;;;;;;;3.72;1.40;;;12.10;84.10;;;;;;4941312;29;20008;-80
2024/02/01 23:17:31;;;;;;;5.85;1.80;;;11.90;83.90;;;;;;4940676;28;20032;-79
2024/02/01 23:19:57;;;;;;;5.57;1.88;;;12.00;84.00;;;;;;4941368;29;20069;-79
2024/02/01 23:22:23;;;;;;;6.05;1.70;;;11.90;84.00;;;;;;4924619;29;20108;-79
2024/02/01 23:24:48;;;;;;;4.50;1.67;;;12.50;84.30;;;;;;4925054;29;20020;-79
2024/02/01 23:27:14;;;;;;;4.70;1.65;;;11.90;84.00;;;;;;4940591;29;20012;-79
2024/02/01 23:29:41;;;;;;;4.82;1.80;;;11.90;84.00;;;;;;4940018;28;20056;-79
2024/02/01 23:32:06;;;;;;;5.72;1.70;;;11.90;84.00;;;;;;4940363;29;20024;-79
2024/02/01 23:34:32;;;;;;;4.55;1.60;;;11.80;83.90;;;;;;4924049;29;20131;-79
2024/02/01 23:36:58;;;;;;;4.55;1.75;;;11.90;84.00;;;;;;4941005;29;20115;-79
2024/02/01 23:39:24;;;;;;;6.25;2.00;;;12.00;84.00;;;;;;4940813;29;20016;-79
2024/02/01 23:41:49;;;;;;;5.93;1.80;;;12.00;84.00;;;;;;4924052;29;20032;-79
2024/02/01 23:44:15;;;;;;;4.47;1.60;;;11.90;84.00;;;;;;4939552;28;20024;-78
2024/02/01 23:46:40;;;;;;;5.30;1.73;;;12.00;84.00;;;;;;4941189;29;20047;-79
2024/02/01 23:49:06;;;;;;;4.32;1.65;;;11.90;84.00;;;;;;4923741;29;20021;-78
2024/02/01 23:51:32;;;;;;;4.30;1.60;;;11.90;84.00;;;;;;4940323;29;20064;-79
2024/02/01 23:53:58;;;;;;;4.50;1.55;;;11.90;84.00;;;;;;4940278;29;20027;-79
2024/02/01 23:56:25;;;;;;;6.22;1.67;;;12.00;84.00;;;;;;4924013;29;20012;-81
2024/02/01 23:58:51;;;;;;;5.35;1.70;;;11.90;84.00;;;;;;4939718;29;20026;-79
